Time;durP1;ratioP1;P1;durP2;ratioP2;P2;SDS_P1;SDS_P2;PMS_P1;PMS_P2;Temp;Humidity;BMP_temperature;BMP_pressure;BME280_temperature;BME280_humidity;BME280_pressure;Samples;Min_cycle;Max_cycle;Signal;HPM_P1;HPM_P2
2022/10/28 00:01:55;;;;;;;7.38;4.97;;;;;;;;;;5143036;27;20033;-75
2022/10/28 00:04:41;;;;;;;8.57;5.15;;;;;;;;;;5140789;27;20016;-74
2022/10/28 00:07:27;;;;;;;9.73;5.10;;;;;;;;;;5139425;27;20408;-74
2022/10/28 00:10:12;;;;;;;10.48;5.30;;;;;;;;;;5139755;27;20027;-75
2022/10/28 00:12:58;;;;;;;11.48;6.05;;;;;;;;;;5141045;27;20023;-75
2022/10/28 00:15:43;;;;;;;12.07;6.53;;;;;;;;;;5125215;27;20015;-75
2022/10/28 00:18:29;;;;;;;10.07;6.05;;;;;;;;;;5132525;27;20019;-74
2022/10/28 00:21:16;;;;;;;10.00;6.35;;;;;;;;;;5136117;27;20080;-73
2022/10/28 00:24:02;;;;;;;9.45;6.30;;;;;;;;;;5134986;27;20069;-75
2022/10/28 00:26:47;;;;;;;10.85;6.97;;;;;;;;;;5140102;27;20027;-74
2022/10/28 00:29:33;;;;;;;14.02;6.47;;;;;;;;;;5137889;27;20065;-75
2022/10/28 00:32:18;;;;;;;14.57;6.78;;;;;;;;;;5123030;27;20364;-75
2022/10/28 00:35:04;;;;;;;11.18;6.55;;;;;;;;;;5122811;27;20057;-75
2022/10/28 00:37:51;;;;;;;11.40;6.75;;;;;;;;;;5137447;27;20030;-75
2022/10/28 00:40:37;;;;;;;12.70;6.47;;;;;;;;;;5137245;27;20372;-76
2022/10/28 00:43:39;;;;;;;9.93;6.03;;;;;;;;;;5122226;27;20048;-75
2022/10/28 00:46:43;;;;;;;9.10;6.22;;;;;;;;;;5135987;27;20038;-75
2022/10/28 00:49:31;;;;;;;10.50;6.20;;;;;;;;;;5136597;27;20015;-75
2022/10/28 00:52:19;;;;;;;10.30;6.05;;;;;;;;;;5136284;27;20122;-75
2022/10/28 00:55:05;;;;;;;9.00;5.88;;;;;;;;;;5136602;27;20023;-75
2022/10/28 00:57:55;;;;;;;9.93;5.85;;;;;;;;;;5136692;27;20450;-75
2022/10/28 01:00:41;;;;;;;9.27;6.13;;;;;;;;;;5136249;27;20037;-75
2022/10/28 01:03:26;;;;;;;10.30;6.53;;;;;;;;;;5120481;27;20019;-75
2022/10/28 01:06:12;;;;;;;11.73;6.18;;;;;;;;;;5136790;27;20019;-75
2022/10/28 01:09:01;;;;;;;9.30;6.03;;;;;;;;;;5135846;27;20496;-75
2022/10/28 01:11:47;;;;;;;10.63;6.10;;;;;;;;;;5135643;27;20019;-75
2022/10/28 01:14:33;;;;;;;13.43;6.50;;;;;;;;;;5135786;27;20090;-75
2022/10/28 01:17:29;;;;;;;14.00;6.70;;;;;;;;;;5135677;27;20168;-75
2022/10/28 01:20:17;;;;;;;12.80;7.07;;;;;;;;;;5135059;27;20041;-75
2022/10/28 01:23:08;;;;;;;11.98;6.53;;;;;;;;;;5135136;27;20441;-75
2022/10/28 01:26:17;;;;;;;12.73;6.50;;;;;;;;;;5135202;27;20015;-75
2022/10/28 01:29:21;;;;;;;12.73;6.30;;;;;;;;;;5108605;27;20462;-74
2022/10/28 01:32:06;;;;;;;17.98;7.80;;;;;;;;;;5135107;27;20098;-74
2022/10/28 01:34:58;;;;;;;14.98;7.43;;;;;;;;;;5119600;27;20357;-74
2022/10/28 01:37:50;;;;;;;15.77;7.93;;;;;;;;;;5135927;27;20043;-75
2022/10/28 01:40:48;;;;;;;12.25;8.02;;;;;;;;;;5135030;27;20034;-74
2022/10/28 01:43:53;;;;;;;19.92;8.32;;;;;;;;;;5135443;27;20046;-75
2022/10/28 01:46:45;;;;;;;16.15;8.10;;;;;;;;;;5135929;27;20357;-74
2022/10/28 01:49:38;;;;;;;12.68;7.88;;;;;;;;;;5120562;28;20067;-75
2022/10/28 01:52:25;;;;;;;14.73;8.02;;;;;;;;;;5135496;28;20023;-74
2022/10/28 01:55:14;;;;;;;13.23;8.57;;;;;;;;;;5121098;28;20102;-74
2022/10/28 01:58:00;;;;;;;14.00;8.52;;;;;;;;;;5135395;28;20501;-74
2022/10/28 02:00:46;;;;;;;12.25;8.10;;;;;;;;;;5135173;28;20031;-75
2022/10/28 02:03:32;;;;;;;14.93;8.55;;;;;;;;;;5135439;28;20019;-74
2022/10/28 02:06:19;;;;;;;13.82;8.23;;;;;;;;;;5136118;28;20019;-74
2022/10/28 02:09:11;;;;;;;14.18;8.68;;;;;;;;;;5134936;28;20030;-75
2022/10/28 02:12:10;;;;;;;12.02;8.20;;;;;;;;;;5134765;28;20019;-75
2022/10/28 02:15:01;;;;;;;14.48;8.40;;;;;;;;;;5120992;28;20103;-74
2022/10/28 02:17:59;;;;;;;13.23;8.65;;;;;;;;;;5135603;28;20015;-74
2022/10/28 02:20:44;;;;;;;12.27;8.23;;;;;;;;;;5124286;27;20499;-74
2022/10/28 02:23:33;;;;;;;17.67;8.50;;;;;;;;;;5138272;27;20026;-75
2022/10/28 02:26:18;;;;;;;14.05;9.13;;;;;;;;;;5139154;27;20369;-74
2022/10/28 02:29:13;;;;;;;19.50;9.07;;;;;;;;;;5139110;27;20023;-75
2022/10/28 02:32:02;;;;;;;21.42;9.15;;;;;;;;;;5139918;27;20094;-74
2022/10/28 02:34:50;;;;;;;15.07;8.38;;;;;;;;;;5139515;27;20008;-74
2022/10/28 02:37:37;;;;;;;14.90;9.60;;;;;;;;;;5139473;27;20530;-75
2022/10/28 02:40:25;;;;;;;21.05;11.25;;;;;;;;;;5139700;27;20130;-75
2022/10/28 02:43:12;;;;;;;15.65;9.98;;;;;;;;;;5139205;27;20477;-74
2022/10/28 02:45:59;;;;;;;15.68;9.18;;;;;;;;;;5139026;27;20047;-74
2022/10/28 02:49:05;;;;;;;16.02;8.80;;;;;;;;;;5124392;27;20026;-74
2022/10/28 02:51:53;;;;;;;18.50;11.23;;;;;;;;;;5124350;27;20361;-75
2022/10/28 02:54:42;;;;;;;17.58;11.63;;;;;;;;;;5138201;27;20027;-74
2022/10/28 02:57:31;;;;;;;18.27;10.52;;;;;;;;;;5122600;27;20437;-75
2022/10/28 03:00:18;;;;;;;18.33;10.48;;;;;;;;;;5123510;27;20448;-74
2022/10/28 03:03:03;;;;;;;18.88;10.70;;;;;;;;;;5136845;27;20007;-74
2022/10/28 03:05:49;;;;;;;19.95;12.27;;;;;;;;;;5139739;27;20115;-75
2022/10/28 03:08:35;;;;;;;20.40;11.55;;;;;;;;;;5137529;27;20456;-75
2022/10/28 03:11:20;;;;;;;26.20;11.10;;;;;;;;;;5138959;27;20023;-75
2022/10/28 03:14:06;;;;;;;19.98;11.93;;;;;;;;;;5137826;27;20015;-73
2022/10/28 03:16:51;;;;;;;27.40;13.32;;;;;;;;;;5123222;27;20016;-75
2022/10/28 03:19:37;;;;;;;23.52;13.35;;;;;;;;;;5138426;27;20030;-75
2022/10/28 03:22:22;;;;;;;26.38;13.45;;;;;;;;;;5137649;27;20318;-75
2022/10/28 03:25:08;;;;;;;23.73;12.75;;;;;;;;;;5137105;27;20019;-74
2022/10/28 03:27:54;;;;;;;23.10;13.30;;;;;;;;;;5137871;27;20011;-74
2022/10/28 03:30:39;;;;;;;24.77;13.63;;;;;;;;;;5136968;27;20015;-73
2022/10/28 03:33:25;;;;;;;31.23;14.05;;;;;;;;;;5137365;27;20110;-75
2022/10/28 03:36:11;;;;;;;26.98;13.48;;;;;;;;;;5137076;27;20076;-75
2022/10/28 03:38:56;;;;;;;27.52;13.13;;;;;;;;;;5137399;27;20023;-75
2022/10/28 03:41:43;;;;;;;25.33;13.07;;;;;;;;;;5137164;27;20047;-75
2022/10/28 03:44:29;;;;;;;26.70;12.98;;;;;;;;;;5123071;27;20131;-75
2022/10/28 03:47:14;;;;;;;20.08;11.82;;;;;;;;;;5123324;27;20372;-74
2022/10/28 03:50:00;;;;;;;26.75;12.73;;;;;;;;;;5138282;27;20034;-74
2022/10/28 03:52:45;;;;;;;28.27;13.02;;;;;;;;;;5135798;27;20360;-73
2022/10/28 03:55:31;;;;;;;24.58;12.77;;;;;;;;;;5136794;27;20052;-73
2022/10/28 03:58:16;;;;;;;22.02;12.27;;;;;;;;;;5136418;27;20018;-74
2022/10/28 04:01:03;;;;;;;22.58;12.15;;;;;;;;;;5136423;27;20038;-74
2022/10/28 04:03:48;;;;;;;24.50;12.90;;;;;;;;;;5135978;27;20015;-72
2022/10/28 04:06:34;;;;;;;27.08;13.57;;;;;;;;;;5136457;27;20451;-76
2022/10/28 04:09:19;;;;;;;34.38;14.30;;;;;;;;;;5136501;27;20034;-72
2022/10/28 04:12:05;;;;;;;26.88;14.52;;;;;;;;;;5136437;27;20110;-75
2022/10/28 04:14:52;;;;;;;28.45;15.63;;;;;;;;;;5137216;27;20034;-74
2022/10/28 04:17:38;;;;;;;32.75;14.25;;;;;;;;;;5136796;27;20033;-73
2022/10/28 04:20:24;;;;;;;32.55;16.20;;;;;;;;;;5137901;27;20024;-73
2022/10/28 04:23:13;;;;;;;26.08;14.32;;;;;;;;;;5121509;27;20019;-73
2022/10/28 04:25:58;;;;;;;33.90;14.80;;;;;;;;;;5136500;27;20338;-75
2022/10/28 04:28:44;;;;;;;27.45;14.45;;;;;;;;;;5122515;27;20065;-74
2022/10/28 04:31:29;;;;;;;22.88;14.38;;;;;;;;;;5135547;27;20030;-76
2022/10/28 04:34:15;;;;;;;29.63;15.30;;;;;;;;;;5121294;27;20023;-75
2022/10/28 04:37:01;;;;;;;34.40;15.85;;;;;;;;;;5135915;27;20042;-74
2022/10/28 04:39:46;;;;;;;27.95;13.95;;;;;;;;;;5121032;27;20062;-75
2022/10/28 04:42:32;;;;;;;31.42;15.45;;;;;;;;;;5121108;27;20463;-75
2022/10/28 04:45:18;;;;;;;30.92;16.15;;;;;;;;;;5135615;27;20043;-75
2022/10/28 04:48:03;;;;;;;29.48;14.75;;;;;;;;;;5135440;27;20080;-74
2022/10/28 04:50:49;;;;;;;24.02;12.45;;;;;;;;;;5136625;27;20019;-74
2022/10/28 04:53:35;;;;;;;27.10;12.63;;;;;;;;;;5135273;27;20408;-74
2022/10/28 04:56:20;;;;;;;19.52;11.20;;;;;;;;;;5136305;27;20027;-75
2022/10/28 04:59:06;;;;;;;20.10;10.82;;;;;;;;;;5136205;27;20019;-75
2022/10/28 05:01:52;;;;;;;19.77;11.07;;;;;;;;;;5121595;27;20049;-75
2022/10/28 05:04:37;;;;;;;17.83;10.65;;;;;;;;;;5135309;27;20011;-74
2022/10/28 05:07:23;;;;;;;25.83;11.52;;;;;;;;;;5135378;27;20444;-75
2022/10/28 05:10:09;;;;;;;20.00;11.95;;;;;;;;;;5135101;27;20034;-77
2022/10/28 05:12:54;;;;;;;21.95;11.18;;;;;;;;;;5135075;27;20038;-76
2022/10/28 05:15:40;;;;;;;23.73;11.45;;;;;;;;;;5134779;27;20110;-75
2022/10/28 05:18:25;;;;;;;22.55;11.23;;;;;;;;;;5135901;27;20068;-75
2022/10/28 05:21:11;;;;;;;25.55;11.35;;;;;;;;;;5135182;27;20098;-75
2022/10/28 05:23:57;;;;;;;25.52;11.60;;;;;;;;;;5135961;27;20048;-74
2022/10/28 05:26:42;;;;;;;20.10;11.65;;;;;;;;;;5142172;27;19996;-74
2022/10/28 05:29:28;;;;;;;22.10;12.45;;;;;;;;;;5135334;27;20015;-75
2022/10/28 05:32:13;;;;;;;25.65;11.93;;;;;;;;;;5137563;27;20410;-76
2022/10/28 05:34:59;;;;;;;18.90;12.85;;;;;;;;;;5121140;27;20399;-75
2022/10/28 05:37:44;;;;;;;22.08;12.85;;;;;;;;;;5135495;27;20029;-76
2022/10/28 05:40:33;;;;;;;24.75;12.93;;;;;;;;;;5120114;27;20015;-75
2022/10/28 05:43:19;;;;;;;26.05;13.45;;;;;;;;;;5134707;27;20016;-75
2022/10/28 05:46:04;;;;;;;32.58;13.25;;;;;;;;;;5120584;27;20039;-75
2022/10/28 05:48:50;;;;;;;21.52;12.88;;;;;;;;;;5120947;27;20094;-75
2022/10/28 05:51:35;;;;;;;20.25;12.25;;;;;;;;;;5135596;28;20398;-75
2022/10/28 05:54:21;;;;;;;31.58;13.20;;;;;;;;;;5122892;28;20102;-76
2022/10/28 05:57:07;;;;;;;21.10;12.60;;;;;;;;;;5134880;28;20033;-76
2022/10/28 05:59:52;;;;;;;19.55;12.13;;;;;;;;;;5135484;28;20061;-73
2022/10/28 06:02:38;;;;;;;24.98;12.98;;;;;;;;;;5134683;28;20080;-76
2022/10/28 06:05:24;;;;;;;22.02;12.80;;;;;;;;;;5135881;28;20325;-77
2022/10/28 06:08:11;;;;;;;19.17;13.32;;;;;;;;;;5134719;28;20405;-78
2022/10/28 06:10:57;;;;;;;23.42;14.68;;;;;;;;;;5135087;28;20023;-76
2022/10/28 06:13:42;;;;;;;22.92;12.60;;;;;;;;;;5134877;28;20030;-79
2022/10/28 06:16:28;;;;;;;25.85;13.45;;;;;;;;;;5134542;28;20023;-73
2022/10/28 06:19:13;;;;;;;33.03;14.63;;;;;;;;;;5133927;28;20015;-73
2022/10/28 06:21:59;;;;;;;25.75;14.00;;;;;;;;;;5133940;28;20103;-74
2022/10/28 06:24:44;;;;;;;24.30;14.20;;;;;;;;;;5135150;28;20477;-76
2022/10/28 06:27:30;;;;;;;24.40;14.63;;;;;;;;;;5119994;28;20015;-75
2022/10/28 06:30:16;;;;;;;26.35;14.18;;;;;;;;;;5134262;28;20029;-73
2022/10/28 06:33:01;;;;;;;23.70;14.38;;;;;;;;;;5135875;28;20026;-75
2022/10/28 06:35:47;;;;;;;23.55;14.23;;;;;;;;;;5134062;28;20027;-76
2022/10/28 06:38:32;;;;;;;31.75;15.45;;;;;;;;;;5134525;28;20023;-76
2022/10/28 06:41:18;;;;;;;27.17;14.98;;;;;;;;;;5135460;28;20353;-78
2022/10/28 06:44:04;;;;;;;24.20;14.32;;;;;;;;;;5134290;28;20106;-76
2022/10/28 06:46:49;;;;;;;24.45;14.95;;;;;;;;;;5134028;28;20039;-76
2022/10/28 06:49:35;;;;;;;21.92;14.75;;;;;;;;;;5134518;28;20088;-75
2022/10/28 06:52:20;;;;;;;34.55;15.10;;;;;;;;;;5120482;28;20045;-78
2022/10/28 06:55:06;;;;;;;29.35;15.35;;;;;;;;;;5135174;28;20050;-76
2022/10/28 06:57:52;;;;;;;25.15;14.75;;;;;;;;;;5133101;28;20027;-75
2022/10/28 07:00:38;;;;;;;32.85;14.73;;;;;;;;;;5119627;28;20517;-76
2022/10/28 07:03:23;;;;;;;26.85;14.40;;;;;;;;;;5133594;28;20361;-76
2022/10/28 07:06:12;;;;;;;29.88;14.40;;;;;;;;;;5134423;27;20441;-76
2022/10/28 07:08:58;;;;;;;21.67;13.85;;;;;;;;;;5137337;27;20433;-75
2022/10/28 07:11:46;;;;;;;26.05;14.65;;;;;;;;;;5138530;27;20019;-75
2022/10/28 07:14:33;;;;;;;27.33;14.73;;;;;;;;;;5108822;27;20021;-75
2022/10/28 07:17:19;;;;;;;26.17;14.85;;;;;;;;;;5123134;27;20029;-75
2022/10/28 07:20:05;;;;;;;20.30;11.77;;;;;;;;;;5137376;27;20015;-76
2022/10/28 07:23:00;;;;;;;18.73;11.13;;;;;;;;;;5122317;27;20015;-77
2022/10/28 07:25:53;;;;;;;20.13;10.50;;;;;;;;;;5138257;27;20076;-76
2022/10/28 07:28:39;;;;;;;16.38;10.80;;;;;;;;;;5136584;27;20027;-75
2022/10/28 07:31:26;;;;;;;22.73;9.43;;;;;;;;;;5138122;27;20015;-76
2022/10/28 07:34:12;;;;;;;19.25;9.68;;;;;;;;;;5138366;27;20119;-77
2022/10/28 07:36:57;;;;;;;24.38;9.25;;;;;;;;;;5138508;27;20020;-74
2022/10/28 07:39:43;;;;;;;20.45;9.65;;;;;;;;;;5137217;27;20019;-76
2022/10/28 07:42:28;;;;;;;31.30;10.48;;;;;;;;;;5139237;27;20023;-77
2022/10/28 07:45:14;;;;;;;21.65;8.85;;;;;;;;;;5123164;27;20043;-78
2022/10/28 07:48:00;;;;;;;21.13;9.65;;;;;;;;;;5138252;27;20080;-76
2022/10/28 07:50:46;;;;;;;19.15;8.02;;;;;;;;;;5137685;27;20015;-76
2022/10/28 07:53:31;;;;;;;19.30;7.90;;;;;;;;;;5122063;27;20220;-76
2022/10/28 07:56:17;;;;;;;12.32;8.00;;;;;;;;;;5136766;27;20027;-76
2022/10/28 07:59:02;;;;;;;15.85;8.68;;;;;;;;;;5137738;27;20356;-78
2022/10/28 08:01:48;;;;;;;12.68;8.18;;;;;;;;;;5136526;27;20415;-77
2022/10/28 08:04:33;;;;;;;11.60;6.95;;;;;;;;;;5137646;27;20019;-77
2022/10/28 08:07:19;;;;;;;11.55;7.47;;;;;;;;;;5137801;27;20064;-77
2022/10/28 08:10:05;;;;;;;16.20;8.23;;;;;;;;;;5137281;27;20023;-76
2022/10/28 08:12:51;;;;;;;13.45;8.20;;;;;;;;;;5122887;27;20019;-76
2022/10/28 08:15:37;;;;;;;13.52;7.53;;;;;;;;;;5123294;27;20094;-77
2022/10/28 08:18:22;;;;;;;16.40;7.80;;;;;;;;;;5122119;27;20439;-77
2022/10/28 08:21:09;;;;;;;14.60;7.93;;;;;;;;;;5136784;27;20102;-78
2022/10/28 08:23:54;;;;;;;12.35;7.13;;;;;;;;;;5137532;27;20033;-78
2022/10/28 08:26:40;;;;;;;9.35;6.85;;;;;;;;;;5136949;27;20019;-78
2022/10/28 08:29:25;;;;;;;11.70;6.88;;;;;;;;;;5136884;27;20038;-77
2022/10/28 08:32:11;;;;;;;19.08;7.75;;;;;;;;;;5121646;27;20509;-77
2022/10/28 08:34:57;;;;;;;9.75;5.75;;;;;;;;;;5137498;27;20027;-76
2022/10/28 08:37:49;;;;;;;7.93;5.68;;;;;;;;;;5137528;27;20023;-76
2022/10/28 08:40:40;;;;;;;9.55;5.90;;;;;;;;;;5136042;27;20029;-76
2022/10/28 08:43:45;;;;;;;9.45;5.60;;;;;;;;;;5137153;27;20039;-77
2022/10/28 08:46:33;;;;;;;10.60;5.72;;;;;;;;;;5122150;27;20035;-77
2022/10/28 08:49:22;;;;;;;10.85;6.20;;;;;;;;;;5120876;27;20068;-78
2022/10/28 08:52:10;;;;;;;13.60;5.55;;;;;;;;;;5136758;27;20047;-77
2022/10/28 08:55:25;;;;;;;8.50;5.40;;;;;;;;;;5121117;27;20026;-79
2022/10/28 08:58:25;;;;;;;7.95;5.10;;;;;;;;;;5120905;27;20169;-78
2022/10/28 09:01:20;;;;;;;8.35;4.93;;;;;;;;;;5136706;27;20023;-78
2022/10/28 09:04:10;;;;;;;17.45;10.52;;;;;;;;;;5136765;27;20121;-78
2022/10/28 09:06:56;;;;;;;12.40;5.50;;;;;;;;;;5134718;27;20019;-79
2022/10/28 09:09:41;;;;;;;8.60;5.78;;;;;;;;;;5136434;27;20112;-77
2022/10/28 09:12:27;;;;;;;7.90;5.68;;;;;;;;;;5136096;27;20372;-78
2022/10/28 09:15:19;;;;;;;9.70;5.30;;;;;;;;;;5136052;27;20035;-77
2022/10/28 09:18:15;;;;;;;9.32;5.20;;;;;;;;;;5120556;27;20110;-77
2022/10/28 09:21:03;;;;;;;7.97;4.80;;;;;;;;;;5135061;27;20088;-79
2022/10/28 09:23:53;;;;;;;9.20;5.20;;;;;;;;;;5122268;27;20030;-76
2022/10/28 09:26:48;;;;;;;7.53;5.00;;;;;;;;;;5135847;27;20030;-76
2022/10/28 09:29:49;;;;;;;8.45;5.40;;;;;;;;;;5135197;27;20357;-78
2022/10/28 09:32:51;;;;;;;10.90;5.13;;;;;;;;;;5120086;27;20027;-76
2022/10/28 09:35:40;;;;;;;14.25;6.00;;;;;;;;;;5120820;27;20026;-77
2022/10/28 09:38:33;;;;;;;7.85;5.18;;;;;;;;;;5136541;27;20035;-77
2022/10/28 09:41:21;;;;;;;10.00;6.53;;;;;;;;;;5135420;27;20428;-77
2022/10/28 09:44:13;;;;;;;10.13;6.03;;;;;;;;;;5121403;28;20106;-76
2022/10/28 09:46:59;;;;;;;13.65;6.97;;;;;;;;;;5122288;27;20046;-78
2022/10/28 09:49:50;;;;;;;10.23;6.15;;;;;;;;;;5136732;27;20049;-77
2022/10/28 09:52:39;;;;;;;14.80;7.07;;;;;;;;;;5121168;28;20015;-78
2022/10/28 09:55:25;;;;;;;10.20;6.70;;;;;;;;;;5122480;28;20038;-76
2022/10/28 09:58:12;;;;;;;11.18;7.50;;;;;;;;;;5138291;28;20019;-74
2022/10/28 10:00:57;;;;;;;10.32;7.25;;;;;;;;;;5124581;28;20027;-79
2022/10/28 10:03:44;;;;;;;18.75;10.52;;;;;;;;;;5122066;28;20015;-78
2022/10/28 10:06:43;;;;;;;17.25;11.15;;;;;;;;;;5119758;28;20106;-78
2022/10/28 10:09:29;;;;;;;20.60;10.52;;;;;;;;;;5136053;28;20514;-77
2022/10/28 10:12:15;;;;;;;15.98;10.30;;;;;;;;;;5119685;28;20030;-77
2022/10/28 10:15:03;;;;;;;19.30;10.25;;;;;;;;;;5120749;28;20019;-77
2022/10/28 10:17:49;;;;;;;20.85;10.73;;;;;;;;;;5119585;28;20062;-77
2022/10/28 10:20:52;;;;;;;24.20;10.25;;;;;;;;;;5133545;28;20023;-78
2022/10/28 10:23:37;;;;;;;15.50;9.32;;;;;;;;;;5134184;28;20107;-79
2022/10/28 10:26:23;;;;;;;17.17;9.88;;;;;;;;;;5119715;28;20031;-78
2022/10/28 10:29:09;;;;;;;15.75;9.80;;;;;;;;;;5134620;28;20048;-78
2022/10/28 10:32:18;;;;;;;18.17;9.77;;;;;;;;;;5120428;28;20027;-78
2022/10/28 10:35:19;;;;;;;13.85;8.05;;;;;;;;;;5134848;28;20023;-78
2022/10/28 10:38:05;;;;;;;12.52;7.70;;;;;;;;;;5135149;28;20525;-78
2022/10/28 10:40:51;;;;;;;12.50;7.05;;;;;;;;;;5137760;27;20368;-79
2022/10/28 10:43:38;;;;;;;16.08;7.10;;;;;;;;;;5138560;27;20015;-77
2022/10/28 10:46:24;;;;;;;11.90;6.68;;;;;;;;;;5138415;27;20039;-76
2022/10/28 10:49:14;;;;;;;11.75;6.65;;;;;;;;;;5138451;27;20011;-76
2022/10/28 10:52:14;;;;;;;9.45;6.00;;;;;;;;;;5124247;27;20019;-77
2022/10/28 10:55:01;;;;;;;11.60;5.93;;;;;;;;;;5139556;27;20094;-77
2022/10/28 10:57:47;;;;;;;6.88;4.97;;;;;;;;;;5139195;27;20019;-79
2022/10/28 11:00:37;;;;;;;9.35;5.10;;;;;;;;;;5138389;27;20085;-74
2022/10/28 11:03:29;;;;;;;10.00;5.03;;;;;;;;;;5139405;27;20023;-72
2022/10/28 11:06:19;;;;;;;9.52;5.05;;;;;;;;;;5138285;27;20029;-74
2022/10/28 11:09:06;;;;;;;10.05;5.10;;;;;;;;;;5138811;27;20548;-75
2022/10/28 11:11:54;;;;;;;10.00;5.00;;;;;;;;;;5138092;27;20019;-76
2022/10/28 11:14:51;;;;;;;7.95;4.63;;;;;;;;;;5139168;27;20038;-76
2022/10/28 11:17:37;;;;;;;21.05;13.15;;;;;;;;;;5137883;27;20029;-72
2022/10/28 11:20:24;;;;;;;6.22;4.70;;;;;;;;;;5137230;27;20076;-73
2022/10/28 11:23:30;;;;;;;9.70;5.47;;;;;;;;;;5138078;27;20030;-74
2022/10/28 11:26:17;;;;;;;8.63;4.82;;;;;;;;;;5137709;27;20027;-73
2022/10/28 11:29:10;;;;;;;8.48;6.15;;;;;;;;;;5138435;27;20030;-74
2022/10/28 11:31:59;;;;;;;8.68;4.70;;;;;;;;;;5137756;27;20106;-75
2022/10/28 11:34:54;;;;;;;4.80;4.00;;;;;;;;;;5138078;27;20019;-74
2022/10/28 11:37:48;;;;;;;8.32;4.78;;;;;;;;;;5138413;27;20011;-79
2022/10/28 11:40:53;;;;;;;5.30;3.83;;;;;;;;;;5137933;27;20114;-75
2022/10/28 11:43:52;;;;;;;6.18;4.00;;;;;;;;;;5137071;27;20058;-75
2022/10/28 11:46:40;;;;;;;8.95;4.20;;;;;;;;;;5123579;27;20039;-73
2022/10/28 11:49:35;;;;;;;7.63;3.95;;;;;;;;;;5137343;27;20026;-72
2022/10/28 11:52:27;;;;;;;6.00;3.92;;;;;;;;;;5136546;27;20058;-73
2022/10/28 11:55:12;;;;;;;5.07;4.07;;;;;;;;;;5137238;27;20047;-73
2022/10/28 11:58:01;;;;;;;6.00;4.03;;;;;;;;;;5137161;27;20455;-73
2022/10/28 12:00:49;;;;;;;6.20;4.07;;;;;;;;;;5136954;27;20061;-72
2022/10/28 12:03:57;;;;;;;6.13;4.20;;;;;;;;;;5136200;27;20019;-73
2022/10/28 12:06:42;;;;;;;6.38;4.43;;;;;;;;;;5137190;27;20494;-74
2022/10/28 12:09:31;;;;;;;6.88;5.07;;;;;;;;;;5121371;27;20015;-73
2022/10/28 12:12:26;;;;;;;9.20;5.25;;;;;;;;;;5121771;27;20103;-73
2022/10/28 12:15:30;;;;;;;8.45;4.72;;;;;;;;;;5137078;27;20042;-73
2022/10/28 12:18:41;;;;;;;7.10;4.38;;;;;;;;;;5136563;27;20015;-75
2022/10/28 12:21:31;;;;;;;7.47;5.20;;;;;;;;;;5116761;27;20041;-75
2022/10/28 12:24:19;;;;;;;10.77;5.40;;;;;;;;;;5137498;27;20027;-75
2022/10/28 12:27:17;;;;;;;9.07;5.22;;;;;;;;;;5136803;27;20058;-74
2022/10/28 12:30:07;;;;;;;5.88;3.97;;;;;;;;;;5136269;27;20325;-77
2022/10/28 12:33:02;;;;;;;5.90;3.92;;;;;;;;;;5137114;27;20165;-74
2022/10/28 12:35:59;;;;;;;6.30;3.72;;;;;;;;;;5122031;27;20022;-74
2022/10/28 12:38:54;;;;;;;8.02;4.05;;;;;;;;;;5136406;27;20019;-74
2022/10/28 12:41:54;;;;;;;6.25;3.80;;;;;;;;;;5136409;27;20022;-74
2022/10/28 12:44:40;;;;;;;8.07;4.20;;;;;;;;;;5136148;27;20047;-74
2022/10/28 12:47:30;;;;;;;8.02;4.47;;;;;;;;;;5136670;27;20090;-73
2022/10/28 12:50:19;;;;;;;7.43;3.90;;;;;;;;;;5136557;27;20034;-74
2022/10/28 12:53:15;;;;;;;5.68;4.18;;;;;;;;;;5136604;27;20079;-74
2022/10/28 12:56:01;;;;;;;5.90;4.10;;;;;;;;;;5136310;27;20034;-74
2022/10/28 12:58:53;;;;;;;5.68;4.05;;;;;;;;;;5140050;27;20043;-75
2022/10/28 13:01:41;;;;;;;7.68;4.10;;;;;;;;;;5148493;27;20035;-74
2022/10/28 13:04:27;;;;;;;13.85;9.35;;;;;;;;;;5136028;27;20080;-73
2022/10/28 13:07:28;;;;;;;8.70;5.90;;;;;;;;;;5121642;27;20033;-74
2022/10/28 13:10:23;;;;;;;9.57;4.53;;;;;;;;;;5135958;27;20504;-74
2022/10/28 13:13:08;;;;;;;8.40;4.18;;;;;;;;;;5135747;27;20031;-75
2022/10/28 13:16:03;;;;;;;6.22;4.15;;;;;;;;;;5120686;27;20444;-74
2022/10/28 13:18:53;;;;;;;6.30;4.35;;;;;;;;;;5136615;27;20031;-74
2022/10/28 13:21:54;;;;;;;5.15;3.72;;;;;;;;;;5122155;27;20019;-76
2022/10/28 13:25:05;;;;;;;6.60;4.13;;;;;;;;;;5135617;27;20170;-74
2022/10/28 13:27:55;;;;;;;5.80;3.80;;;;;;;;;;5115310;27;20411;-75
2022/10/28 13:30:51;;;;;;;6.03;4.05;;;;;;;;;;5136775;27;20027;-74
2022/10/28 13:33:37;;;;;;;7.13;4.60;;;;;;;;;;5121395;27;20023;-75
2022/10/28 13:36:30;;;;;;;9.45;7.25;;;;;;;;;;5138171;27;20023;-74
2022/10/28 13:39:21;;;;;;;5.32;4.05;;;;;;;;;;5122113;27;20019;-72
2022/10/28 13:42:18;;;;;;;8.15;4.18;;;;;;;;;;5136406;27;20023;-73
2022/10/28 13:45:04;;;;;;;6.38;4.10;;;;;;;;;;5135678;27;20503;-72
2022/10/28 13:47:49;;;;;;;9.95;4.43;;;;;;;;;;5134428;27;20015;-74
2022/10/28 13:50:36;;;;;;;6.90;4.10;;;;;;;;;;5136414;27;20027;-72
2022/10/28 13:53:27;;;;;;;6.05;4.15;;;;;;;;;;5120538;28;20381;-73
2022/10/28 13:56:32;;;;;;;6.32;3.75;;;;;;;;;;5135233;28;20019;-72
2022/10/28 13:59:23;;;;;;;7.18;4.40;;;;;;;;;;5134949;28;20030;-73
2022/10/28 14:02:20;;;;;;;6.30;3.75;;;;;;;;;;5135099;28;20023;-73
2022/10/28 14:05:08;;;;;;;5.50;3.70;;;;;;;;;;5135956;28;20019;-71
2022/10/28 14:07:54;;;;;;;6.95;4.22;;;;;;;;;;5135824;28;20027;-70
2022/10/28 14:10:57;;;;;;;8.52;4.32;;;;;;;;;;5135187;28;20091;-72
2022/10/28 14:13:49;;;;;;;6.45;3.95;;;;;;;;;;5134974;28;20026;-72
2022/10/28 14:16:38;;;;;;;6.75;4.40;;;;;;;;;;5138520;27;20082;-73
2022/10/28 14:19:24;;;;;;;8.30;4.30;;;;;;;;;;5139465;27;20076;-75
2022/10/28 14:22:09;;;;;;;8.48;4.18;;;;;;;;;;5138781;27;20026;-71
2022/10/28 14:24:55;;;;;;;6.78;4.57;;;;;;;;;;5138561;27;20015;-71
2022/10/28 14:27:41;;;;;;;8.65;4.10;;;;;;;;;;5138277;27;20356;-72
2022/10/28 14:30:27;;;;;;;12.73;5.15;;;;;;;;;;5139777;27;20019;-74
2022/10/28 14:33:20;;;;;;;8.90;4.50;;;;;;;;;;5138979;27;20023;-76
2022/10/28 14:36:17;;;;;;;13.25;5.07;;;;;;;;;;5139796;27;20394;-74
2022/10/28 14:39:03;;;;;;;10.07;5.13;;;;;;;;;;5138722;27;20027;-75
2022/10/28 14:42:18;;;;;;;9.85;5.40;;;;;;;;;;5139091;27;20134;-79
2022/10/28 14:45:21;;;;;;;12.13;6.32;;;;;;;;;;5064194;27;20042;-77
2022/10/28 14:48:18;;;;;;;12.48;5.80;;;;;;;;;;5139356;27;20399;-75
2022/10/28 14:51:08;;;;;;;10.77;5.50;;;;;;;;;;5139647;27;20015;-77
2022/10/28 14:53:56;;;;;;;12.23;5.68;;;;;;;;;;5139457;27;20015;-76
2022/10/28 14:56:42;;;;;;;10.40;5.25;;;;;;;;;;5124170;27;20023;-77
2022/10/28 14:59:31;;;;;;;10.85;5.32;;;;;;;;;;5139197;27;20447;-76
2022/10/28 15:02:20;;;;;;;10.23;5.45;;;;;;;;;;5124131;27;20333;-75
2022/10/28 15:05:27;;;;;;;13.98;6.07;;;;;;;;;;5139529;27;20449;-77
2022/10/28 15:08:13;;;;;;;15.15;6.10;;;;;;;;;;5123394;27;20113;-75
2022/10/28 15:10:59;;;;;;;16.27;8.30;;;;;;;;;;5138629;27;20042;-72
2022/10/28 15:13:46;;;;;;;14.45;6.57;;;;;;;;;;5138031;27;20047;-75
2022/10/28 15:16:32;;;;;;;15.18;6.03;;;;;;;;;;5138105;27;20034;-73
2022/10/28 15:19:19;;;;;;;20.42;6.70;;;;;;;;;;5138336;27;20023;-74
2022/10/28 15:22:13;;;;;;;20.10;8.35;;;;;;;;;;5138625;27;20054;-73
2022/10/28 15:24:58;;;;;;;31.88;18.33;;;;;;;;;;5139170;27;20011;-76
2022/10/28 15:27:45;;;;;;;23.27;12.13;;;;;;;;;;5122773;27;20016;-77
2022/10/28 15:30:30;;;;;;;28.15;12.35;;;;;;;;;;5122511;27;20427;-77
2022/10/28 15:33:26;;;;;;;25.08;9.38;;;;;;;;;;5137172;27;20333;-76
2022/10/28 15:36:11;;;;;;;22.42;9.45;;;;;;;;;;5124699;27;20372;-76
2022/10/28 15:38:57;;;;;;;22.33;9.48;;;;;;;;;;5123950;27;20019;-78
2022/10/28 15:41:43;;;;;;;16.40;9.48;;;;;;;;;;5139230;27;20110;-76
2022/10/28 15:44:30;;;;;;;16.08;8.98;;;;;;;;;;5140542;27;20023;-78
2022/10/28 15:47:25;;;;;;;18.77;9.52;;;;;;;;;;5125437;27;20023;-77
2022/10/28 15:50:14;;;;;;;19.92;10.30;;;;;;;;;;5123671;27;20034;-77
2022/10/28 15:53:05;;;;;;;22.08;11.30;;;;;;;;;;5137851;27;20028;-76
2022/10/28 15:56:05;;;;;;;31.35;12.55;;;;;;;;;;5137131;27;20023;-78
2022/10/28 15:58:57;;;;;;;30.40;13.45;;;;;;;;;;5137778;27;20040;-77
2022/10/28 16:01:43;;;;;;;38.55;14.65;;;;;;;;;;5137879;27;20326;-79
2022/10/28 16:04:42;;;;;;;44.08;15.60;;;;;;;;;;5138240;27;20071;-76
2022/10/28 16:07:28;;;;;;;40.03;16.05;;;;;;;;;;5136505;27;20452;-77
2022/10/28 16:10:14;;;;;;;39.75;16.45;;;;;;;;;;5138110;27;20092;-77
2022/10/28 16:13:00;;;;;;;30.30;15.55;;;;;;;;;;5137017;27;20019;-77
2022/10/28 16:16:12;;;;;;;46.78;17.52;;;;;;;;;;5122519;27;20041;-75
2022/10/28 16:19:08;;;;;;;39.17;17.80;;;;;;;;;;5139110;27;20023;-78
2022/10/28 16:21:53;;;;;;;58.67;20.38;;;;;;;;;;5122905;27;20106;-79
2022/10/28 16:24:40;;;;;;;78.32;26.10;;;;;;;;;;5137685;27;20007;-78
2022/10/28 16:27:27;;;;;;;52.95;20.80;;;;;;;;;;5121776;27;20031;-78
2022/10/28 16:30:12;;;;;;;61.58;22.25;;;;;;;;;;5136402;27;20398;-76
2022/10/28 16:32:58;;;;;;;54.15;20.60;;;;;;;;;;5122111;27;20433;-77
2022/10/28 16:35:43;;;;;;;51.92;20.20;;;;;;;;;;5124442;27;20032;-77
2022/10/28 16:38:30;;;;;;;58.90;21.35;;;;;;;;;;5136599;27;20023;-77